Whitethorn, California
Current Conditions -  °F | °C
As of 1:30 AM on Tuesday 21 Oct 2014 (Local Time) from KFOT Reporting Station
Clear Clear  
Wind Chill: 50°   Ceiling: Unl
Heat Index: 50°   Visibility: 10mi
Dew Point: 50°   Wind: 9mph
Humidity: 100%   Direction: 130°SE
Pressure: 30.07"   Gusts: NA
Location:  40.02°N, 123.95°W
Report Text: KFOT 210830Z AUTO 13008KT 10SM CLR 10/10 A3007 RMK AO1
Loading
Personal Weather Stations






























Interactive Weather Map
Tropical Storm Tracking
New forecast layout! Learn more

10-Day Weather Forecast

Advertisements
Track Severe Weather on mobile